Time;durP1;ratioP1;P1;durP2;ratioP2;P2;SDS_P1;SDS_P2;PMS_P1;PMS_P2;Temp;Humidity;BMP_temperature;BMP_pressure;BME280_temperature;BME280_humidity;BME280_pressure;Samples;Min_cycle;Max_cycle;Signal;HPM_P1;HPM_P2
2023/04/13 00:01:12;;;;;;;;;1.75;1.75;;;;;9.08;52.91;99892.94;5042229;28;45264;-66
2023/04/13 00:03:38;;;;;;;;;1.00;1.00;;;;;9.13;52.95;99900.69;5042418;28;45442;-66
2023/04/13 00:06:03;;;;;;;;;4.50;0.50;;;;;9.11;53.13;99892.03;5042299;28;45675;-66
2023/04/13 00:08:29;;;;;;;;;3.50;2.00;;;;;9.10;52.84;99899.00;5042077;28;46988;-68
2023/04/13 00:10:56;;;;;;;;;3.75;1.25;;;;;9.11;53.11;99905.97;5042046;28;45241;-68
2023/04/13 00:13:23;;;;;;;;;1.25;1.00;;;;;9.13;52.72;99899.84;5040933;28;45322;-68
2023/04/13 00:15:48;;;;;;;;;3.00;1.00;;;;;9.12;52.81;99893.75;5042080;28;45332;-68
2023/04/13 00:18:14;;;;;;;;;2.75;2.00;;;;;9.15;53.14;99913.78;5041914;28;45352;-68
2023/04/13 00:20:40;;;;;;;;;3.00;1.00;;;;;9.14;53.10;99907.66;5042098;28;45357;-68
2023/04/13 00:23:06;;;;;;;;;2.50;2.50;;;;;9.14;52.83;99917.31;5040815;28;45244;-68
2023/04/13 00:25:31;;;;;;;;;3.00;2.50;;;;;9.10;53.13;99911.25;5041582;28;45229;-68
2023/04/13 00:27:56;;;;;;;;;6.75;2.00;;;;;9.09;53.10;99931.38;5041869;28;46022;-68
2023/04/13 00:30:22;;;;;;;;;1.25;1.25;;;;;9.08;53.03;99903.44;5032314;28;46050;-68
2023/04/13 00:32:48;;;;;;;;;4.50;0.25;;;;;9.07;53.16;99906.94;5030138;28;45213;-69
2023/04/13 00:35:18;;;;;;;;;1.00;1.00;;;;;9.04;53.07;99901.78;5030977;28;45461;-68
2023/04/13 00:37:46;;;;;;;;;4.50;1.75;;;;;9.06;53.30;99904.38;5038740;28;47189;-68
2023/04/13 00:40:12;;;;;;;;;1.25;1.00;;;;;9.06;53.34;99904.38;5041361;28;45292;-68
2023/04/13 00:42:38;;;;;;;;;3.00;1.75;;;;;9.06;53.25;99906.97;5041619;28;45296;-68
2023/04/13 00:45:04;;;;;;;;;1.00;1.00;;;;;9.00;53.61;99904.50;5040378;28;45328;-68
2023/04/13 00:47:31;;;;;;;;;6.25;3.50;;;;;9.02;53.18;99914.03;5041483;28;46143;-68
2023/04/13 00:50:00;;;;;;;;;0.00;0.00;;;;;8.94;53.75;99881.88;5041520;28;45372;-68
2023/04/13 00:52:25;;;;;;;;;1.25;1.00;;;;;8.97;53.71;99900.19;5041573;28;45405;-68
2023/04/13 00:54:51;;;;;;;;;5.50;3.00;;;;;8.97;53.63;99894.94;5041375;28;45237;-68
2023/04/13 00:57:19;;;;;;;;;4.00;2.00;;;;;8.96;53.81;99906.31;5041171;28;46214;-68
2023/04/13 00:59:48;;;;;;;;;1.75;1.25;;;;;8.93;53.75;99917.72;5041222;28;45530;-68
2023/04/13 01:02:14;;;;;;;;;3.50;2.25;;;;;8.92;53.44;99912.50;5041573;28;45322;-68
2023/04/13 01:04:40;;;;;;;;;2.50;0.50;;;;;8.90;53.91;99904.66;5041283;28;45487;-68
2023/04/13 01:07:08;;;;;;;;;5.00;2.00;;;;;8.91;53.81;99916.88;5040048;28;45885;-68
2023/04/13 01:09:44;;;;;;;;;2.00;1.75;;;;;8.91;53.79;99906.38;5041144;28;45218;-68
2023/04/13 01:12:36;;;;;;;;;3.00;1.00;;;;;8.95;53.59;99915.06;5056590;28;45258;-68
2023/04/13 01:15:07;;;;;;;;;3.00;2.00;;;;;8.91;53.63;99905.53;5040077;28;45297;-68
2023/04/13 01:17:40;;;;;;;;;2.25;1.00;;;;;8.86;53.92;99897.75;5040981;28;46490;-67
2023/04/13 01:20:11;;;;;;;;;4.00;2.00;;;;;8.91;53.85;99918.66;5040905;28;45481;-67
2023/04/13 01:22:45;;;;;;;;;3.50;2.50;;;;;8.88;53.84;99895.09;5041685;28;45189;-67
2023/04/13 01:25:21;;;;;;;;;2.00;2.00;;;;;8.90;53.91;99915.13;5040869;28;45261;-67
2023/04/13 01:27:58;;;;;;;;;3.25;3.00;;;;;8.89;53.65;99900.34;5056084;28;46403;-67
2023/04/13 01:30:25;;;;;;;;;4.50;1.75;;;;;8.90;53.99;99893.31;5031987;28;45305;-67
2023/04/13 01:32:53;;;;;;;;;3.75;1.25;;;;;8.86;54.32;99902.16;5029724;28;45269;-67
2023/04/13 01:35:21;;;;;;;;;4.25;2.00;;;;;8.89;54.05;99904.69;5040867;28;45483;-67
2023/04/13 01:37:47;;;;;;;;;4.25;3.25;;;;;8.91;54.21;99911.63;5040509;28;46545;-67
2023/04/13 01:40:13;;;;;;;;;3.00;2.00;;;;;8.93;53.92;99927.31;5040525;28;45249;-67
2023/04/13 01:42:39;;;;;;;;;4.75;3.00;;;;;8.91;54.19;99922.13;5040597;28;45236;-67
2023/04/13 01:45:13;;;;;;;;;5.00;4.00;;;;;8.93;53.86;99915.09;5056317;28;45418;-67
2023/04/13 01:47:50;;;;;;;;;3.75;3.25;;;;;8.93;54.27;99920.34;5039355;28;46443;-67
2023/04/13 01:50:28;;;;;;;;;4.00;4.00;;;;;8.96;53.80;99934.28;5040517;28;45316;-67
2023/04/13 01:52:57;;;;;;;;;3.75;1.50;;;;;8.97;54.06;99930.75;5040738;28;45353;-67
2023/04/13 01:55:23;;;;;;;;;3.25;2.00;;;;;8.99;53.81;99928.97;5040279;28;45462;-67
2023/04/13 01:57:53;;;;;;;;;5.25;4.25;;;;;9.02;54.17;99923.66;5040150;28;45422;-67
2023/04/13 02:00:18;;;;;;;;;2.75;2.50;;;;;9.01;54.01;99925.41;5040214;28;45318;-67
2023/04/13 02:02:43;;;;;;;;;2.00;2.00;;;;;9.02;54.10;99935.00;5040821;28;45213;-67
2023/04/13 02:05:10;;;;;;;;;7.25;3.25;;;;;9.01;53.88;99958.63;5040398;28;45419;-68
2023/04/13 02:07:37;;;;;;;;;5.00;3.00;;;;;9.02;54.09;99929.75;5040396;28;45406;-67
2023/04/13 02:10:05;;;;;;;;;2.00;0.00;;;;;9.03;54.10;99935.84;5039249;28;45278;-67
2023/04/13 02:12:33;;;;;;;;;3.25;2.25;;;;;8.99;54.04;99944.69;5040309;28;45305;-67
2023/04/13 02:15:00;;;;;;;;;5.25;3.25;;;;;9.02;54.16;99950.72;5040343;28;45388;-67
2023/04/13 02:17:28;;;;;;;;;6.00;4.75;;;;;9.04;53.90;99945.44;5040056;28;46369;-67
2023/04/13 02:19:56;;;;;;;;;5.75;3.50;;;;;9.02;53.67;99940.25;5040023;28;45309;-67
2023/04/13 02:22:22;;;;;;;;;5.25;3.00;;;;;9.07;54.10;99963.75;5040237;28;45359;-67
2023/04/13 02:24:49;;;;;;;;;7.50;4.25;;;;;9.06;53.89;99954.16;5039836;28;45392;-67
2023/04/13 02:27:14;;;;;;;;;4.00;3.00;;;;;9.08;53.86;99934.00;5039795;28;46185;-67
2023/04/13 02:29:40;;;;;;;;;6.00;2.50;;;;;9.04;54.07;99948.97;5051009;28;45343;-67
2023/04/13 02:32:06;;;;;;;;;5.00;3.25;;;;;9.04;53.98;99938.47;5021645;28;45521;-67
2023/04/13 02:34:32;;;;;;;;;6.00;3.00;;;;;9.04;53.47;99950.69;5039826;28;45383;-67
2023/04/13 02:36:59;;;;;;;;;3.75;2.50;;;;;9.07;53.70;99950.66;5039983;28;47073;-67
2023/04/13 02:39:24;;;;;;;;;5.50;3.00;;;;;9.05;53.76;99949.81;5039442;28;45256;-67
2023/04/13 02:41:50;;;;;;;;;1.00;1.00;;;;;9.05;54.13;99952.44;5039954;28;45217;-67
2023/04/13 02:44:15;;;;;;;;;4.75;4.00;;;;;9.01;54.06;99949.00;5038755;28;45536;-67
2023/04/13 02:46:40;;;;;;;;;3.50;2.00;;;;;9.03;53.85;99952.47;5039737;28;46957;-67
2023/04/13 02:49:07;;;;;;;;;5.75;3.25;;;;;9.02;54.11;99947.22;5038041;28;56339;-67
2023/04/13 02:51:32;;;;;;;;;7.50;4.00;;;;;9.01;53.60;99950.78;5040046;28;45331;-67
2023/04/13 02:53:57;;;;;;;;;3.00;2.00;;;;;9.03;53.77;99957.72;5039757;28;45311;-67
2023/04/13 02:56:26;;;;;;;;;4.00;1.00;;;;;9.02;54.04;99949.84;5055086;28;46221;-67
2023/04/13 02:58:52;;;;;;;;;6.50;3.50;;;;;9.01;53.96;99959.50;5039859;28;45162;-67
2023/04/13 03:01:17;;;;;;;;;6.75;5.00;;;;;9.00;53.88;99963.00;5039779;28;45489;-67
2023/04/13 03:03:42;;;;;;;;;3.25;2.00;;;;;9.00;53.88;99970.00;5039924;28;45388;-67
2023/04/13 03:06:08;;;;;;;;;6.00;4.00;;;;;8.98;54.04;99972.66;5038334;28;46986;-66
2023/04/13 03:08:34;;;;;;;;;6.25;1.00;;;;;9.00;53.97;99976.09;5039607;28;45241;-67
2023/04/13 03:10:59;;;;;;;;;4.75;2.25;;;;;8.97;54.14;99967.44;5038061;28;45347;-66
2023/04/13 03:13:25;;;;;;;;;6.25;4.00;;;;;9.00;53.92;99976.09;5039683;28;45182;-67
2023/04/13 03:15:51;;;;;;;;;4.00;2.50;;;;;9.01;53.79;99974.34;5040084;28;45378;-67
2023/04/13 03:18:16;;;;;;;;;7.75;3.25;;;;;9.01;54.09;99964.72;5039470;28;45320;-66
2023/04/13 03:20:43;;;;;;;;;6.75;2.00;;;;;9.02;53.70;99982.19;5039328;28;45307;-66
2023/04/13 03:23:08;;;;;;;;;6.50;5.00;;;;;8.99;53.98;99974.38;5042435;28;45486;-67
2023/04/13 03:25:34;;;;;;;;;4.25;2.75;;;;;8.99;53.92;99977.00;5042552;28;46933;-67
2023/04/13 03:27:59;;;;;;;;;3.75;2.25;;;;;9.00;53.90;99989.19;5042748;28;45241;-67
2023/04/13 03:30:24;;;;;;;;;3.25;3.00;;;;;9.00;53.79;99989.19;5034312;28;45244;-68
2023/04/13 03:32:51;;;;;;;;;4.75;3.00;;;;;9.01;53.99;99985.69;5031471;28;45580;-66
2023/04/13 03:35:16;;;;;;;;;5.00;3.00;;;;;9.00;53.83;99978.72;5042741;28;46180;-67
2023/04/13 03:37:43;;;;;;;;;4.50;1.75;;;;;8.99;53.97;99986.63;5042463;28;45227;-66
2023/04/13 03:40:09;;;;;;;;;4.00;2.00;;;;;8.98;53.77;99988.38;5042618;28;45296;-66
2023/04/13 03:42:36;;;;;;;;;3.50;2.50;;;;;8.96;53.83;99997.19;5042359;28;45262;-67
2023/04/13 03:45:01;;;;;;;;;4.75;2.25;;;;;8.96;53.73;99990.16;5042648;28;45336;-66
2023/04/13 03:47:27;;;;;;;;;2.50;2.50;;;;;8.99;53.96;99986.63;5041739;28;45551;-67
2023/04/13 03:49:52;;;;;;;;;7.00;4.00;;;;;8.97;53.69;99986.66;5058273;28;45338;-67
2023/04/13 03:52:17;;;;;;;;;6.25;4.00;;;;;8.97;53.85;99991.00;5042444;28;45257;-67
2023/04/13 03:54:43;;;;;;;;;6.00;3.00;;;;;8.94;53.75;99989.31;5042399;28;45993;-67
2023/04/13 03:57:08;;;;;;;;;4.50;3.00;;;;;8.95;53.69;99996.28;5042264;28;45344;-67
2023/04/13 03:59:33;;;;;;;;;4.50;3.50;;;;;8.94;53.51;99999.81;5042514;28;45620;-66
2023/04/13 04:02:01;;;;;;;;;6.00;2.00;;;;;8.92;53.86;99991.13;5042295;28;45385;-67
2023/04/13 04:04:26;;;;;;;;;8.00;3.50;;;;;8.91;53.78;99994.63;5042541;28;46180;-67
2023/04/13 04:06:52;;;;;;;;;8.75;5.00;;;;;8.90;53.81;100009.47;5042257;28;45188;-67
2023/04/13 04:09:17;;;;;;;;;4.00;2.25;;;;;8.89;53.66;100040.94;5042357;28;45378;-66
2023/04/13 04:11:43;;;;;;;;;4.00;2.75;;;;;8.82;53.98;100008.78;5042077;28;45390;-67
2023/04/13 04:14:08;;;;;;;;;6.25;5.50;;;;;8.85;54.10;100018.34;5042136;28;46315;-67
2023/04/13 04:16:34;;;;;;;;;5.00;3.00;;;;;8.81;53.88;100020.13;5042074;28;45343;-67
2023/04/13 04:18:59;;;;;;;;;9.00;6.25;;;;;8.76;54.13;100014.97;5042211;28;45260;-67
2023/04/13 04:21:33;;;;;;;;;4.50;4.00;;;;;8.77;54.10;100031.56;5040454;28;48549;-67
2023/04/13 04:23:59;;;;;;;;;11.00;2.75;;;;;8.74;53.94;100032.50;5040608;28;47154;-67
2023/04/13 04:26:25;;;;;;;;;3.25;3.00;;;;;8.75;53.99;100035.97;5041849;28;45317;-67
2023/04/13 04:28:51;;;;;;;;;6.00;2.50;;;;;8.74;54.00;100035.13;5042023;28;45336;-67
2023/04/13 04:31:16;;;;;;;;;5.25;2.25;;;;;8.72;54.19;100033.41;5025087;28;45412;-67
2023/04/13 04:33:43;;;;;;;;;6.50;3.00;;;;;8.72;54.03;100049.13;5037013;28;46180;-67
2023/04/13 04:36:12;;;;;;;;;4.25;2.50;;;;;8.70;54.16;100057.00;5041906;28;45406;-67
2023/04/13 04:38:38;;;;;;;;;3.50;1.00;;;;;8.72;53.54;100055.22;5040471;28;45364;-66
2023/04/13 04:41:04;;;;;;;;;6.00;2.25;;;;;8.70;54.01;100058.75;5041030;28;45225;-66
2023/04/13 04:43:29;;;;;;;;;3.25;2.00;;;;;8.68;54.04;100061.41;5041638;28;45395;-67
2023/04/13 04:45:58;;;;;;;;;6.50;3.75;;;;;8.67;53.80;100064.91;5041498;28;45297;-66
2023/04/13 04:48:25;;;;;;;;;6.00;3.50;;;;;8.65;54.16;100069.31;5041889;28;45339;-67
2023/04/13 04:50:52;;;;;;;;;3.25;1.50;;;;;8.61;54.04;100062.41;5041344;28;45427;-66
2023/04/13 04:53:17;;;;;;;;;5.50;2.25;;;;;8.62;53.90;100066.75;5040165;28;47296;-67
2023/04/13 04:55:42;;;;;;;;;3.25;3.25;;;;;8.60;54.16;100069.41;5041026;28;45179;-66
2023/04/13 04:58:08;;;;;;;;;6.50;3.50;;;;;8.57;54.09;100077.31;5041701;28;45231;-66
2023/04/13 05:00:34;;;;;;;;;3.50;2.00;;;;;8.55;54.24;100088.69;5040184;28;45466;-66
2023/04/13 05:03:00;;;;;;;;;3.00;2.00;;;;;8.54;54.36;100085.22;5041472;28;45232;-66
2023/04/13 05:05:26;;;;;;;;;2.75;2.00;;;;;8.53;54.30;100082.59;5041216;28;45434;-67
2023/04/13 05:07:51;;;;;;;;;4.00;2.00;;;;;8.51;54.23;100089.63;5041495;28;45258;-66
2023/04/13 05:10:17;;;;;;;;;8.25;5.25;;;;;8.50;54.39;100093.13;5040915;28;45414;-67
2023/04/13 05:12:42;;;;;;;;;6.75;2.00;;;;;8.47;54.48;100093.19;5041372;28;45560;-67
2023/04/13 05:15:08;;;;;;;;;8.75;2.75;;;;;8.45;54.52;100111.50;5040695;28;54365;-66
2023/04/13 05:17:35;;;;;;;;;1.50;0.25;;;;;8.42;54.32;100099.31;5041351;28;45305;-68
2023/04/13 05:20:00;;;;;;;;;4.25;3.25;;;;;8.34;54.53;100092.47;5023256;28;45467;-66
2023/04/13 05:22:26;;;;;;;;;3.25;3.25;;;;;8.42;54.52;100112.41;5056513;28;47170;-66
2023/04/13 05:24:51;;;;;;;;;9.50;4.75;;;;;8.39;54.45;100112.47;5040851;28;45220;-66
2023/04/13 05:27:16;;;;;;;;;6.25;3.00;;;;;8.36;54.69;100107.28;5039678;28;45265;-66
2023/04/13 05:29:42;;;;;;;;;6.75;3.00;;;;;8.38;54.88;100115.97;5036164;28;45248;-66
2023/04/13 05:32:07;;;;;;;;;4.00;4.00;;;;;8.34;55.20;100108.19;5024064;28;45288;-68
2023/04/13 05:34:34;;;;;;;;;6.25;5.00;;;;;8.32;54.99;100125.69;5040590;28;45253;-67
2023/04/13 05:37:00;;;;;;;;;7.75;4.25;;;;;8.32;54.94;100123.06;5041022;28;45268;-67
2023/04/13 05:39:26;;;;;;;;;9.50;3.75;;;;;8.30;54.96;100123.94;5040357;28;45466;-67
2023/04/13 05:41:51;;;;;;;;;5.25;3.00;;;;;8.27;54.78;100133.59;5040612;28;45318;-67
2023/04/13 05:44:17;;;;;;;;;6.50;5.50;;;;;8.30;54.96;100129.19;5040601;28;45312;-67
2023/04/13 05:46:42;;;;;;;;;7.50;4.75;;;;;8.26;54.93;100117.03;5040756;28;45496;-67
2023/04/13 05:49:08;;;;;;;;;9.25;6.00;;;;;8.30;54.96;100128.31;5040545;28;45317;-67
2023/04/13 05:51:34;;;;;;;;;5.00;4.00;;;;;8.28;55.07;100122.25;5040648;28;46062;-67
2023/04/13 05:53:59;;;;;;;;;5.00;4.50;;;;;8.30;54.92;100120.44;5040391;28;45334;-67
2023/04/13 05:56:24;;;;;;;;;4.00;3.00;;;;;8.30;54.79;100120.44;5040555;28;45396;-67
2023/04/13 05:58:51;;;;;;;;;8.25;4.75;;;;;8.30;55.15;100126.56;5040358;28;45667;-67
2023/04/13 06:01:18;;;;;;;;;4.00;3.00;;;;;8.30;55.20;100128.31;5040463;28;46419;-67
2023/04/13 06:03:44;;;;;;;;;8.00;4.75;;;;;8.32;54.93;100130.94;5040183;28;45186;-67
2023/04/13 06:06:11;;;;;;;;;6.25;4.75;;;;;8.33;54.84;100128.28;5040546;28;45317;-67
2023/04/13 06:08:37;;;;;;;;;4.50;3.50;;;;;8.34;55.07;100143.09;5040035;28;45521;-67
2023/04/13 06:11:03;;;;;;;;;13.25;5.75;;;;;8.33;55.23;100138.75;5039800;28;46971;-67
2023/04/13 06:13:30;;;;;;;;;6.25;5.00;;;;;8.37;55.01;100144.81;5038758;28;45521;-66
2023/04/13 06:15:56;;;;;;;;;7.25;6.00;;;;;8.31;54.97;100135.28;5039063;28;45344;-67
2023/04/13 06:18:24;;;;;;;;;8.50;4.75;;;;;8.39;55.09;100148.25;5040027;28;45505;-67
2023/04/13 06:20:49;;;;;;;;;9.75;5.25;;;;;8.39;54.83;100143.91;5040112;28;45232;-67
2023/04/13 06:23:14;;;;;;;;;5.00;5.00;;;;;8.41;55.19;100142.09;5040001;28;45427;-67
2023/04/13 06:25:40;;;;;;;;;8.00;4.00;;;;;8.40;55.19;100139.50;5040043;28;45182;-66
2023/04/13 06:28:06;;;;;;;;;4.25;2.50;;;;;8.38;55.10;100144.78;5040087;28;45529;-66
2023/04/13 06:30:31;;;;;;;;;5.75;2.75;;;;;8.42;55.23;100162.16;5028888;28;46243;-67
2023/04/13 06:32:57;;;;;;;;;3.50;1.00;;;;;8.48;54.89;100147.28;5029760;28;45507;-66
2023/04/13 06:35:22;;;;;;;;;10.00;5.50;;;;;8.52;55.16;100162.94;5040143;28;45557;-67
2023/04/13 06:37:48;;;;;;;;;6.25;4.00;;;;;8.49;55.23;100155.13;5040011;28;45495;-67
2023/04/13 06:40:14;;;;;;;;;5.00;3.25;;;;;8.55;55.38;100162.03;5039431;28;45457;-67
2023/04/13 06:42:41;;;;;;;;;6.75;3.00;;;;;8.57;55.17;100168.13;5039822;28;45423;-66
2023/04/13 06:45:10;;;;;;;;;10.50;4.75;;;;;8.58;55.37;100162.84;5039975;28;45246;-67
2023/04/13 06:47:39;;;;;;;;;5.75;4.00;;;;;8.61;55.15;100160.16;5039635;28;45482;-66
2023/04/13 06:50:07;;;;;;;;;8.50;4.00;;;;;8.64;55.21;100159.28;5039681;28;47011;-67
2023/04/13 06:52:33;;;;;;;;;4.75;4.75;;;;;8.65;55.42;100171.47;5039897;28;45361;-66
2023/04/13 06:54:59;;;;;;;;;9.75;4.25;;;;;8.67;54.98;100163.59;5039831;28;45296;-67
2023/04/13 06:57:25;;;;;;;;;9.75;4.25;;;;;8.70;54.92;100169.63;5041649;28;45158;-67
2023/04/13 06:59:50;;;;;;;;;7.50;4.50;;;;;8.74;55.27;100168.72;5043143;28;46870;-67
2023/04/13 07:02:15;;;;;;;;;9.25;4.75;;;;;8.76;55.39;100168.69;5043161;28;45333;-67
2023/04/13 07:04:41;;;;;;;;;6.00;4.50;;;;;8.75;55.29;100154.75;5043454;28;45252;-67
2023/04/13 07:07:06;;;;;;;;;9.50;6.00;;;;;8.82;55.12;100162.47;5043254;28;45233;-67
2023/04/13 07:09:31;;;;;;;;;3.25;2.00;;;;;8.84;55.06;100164.22;5042997;28;46258;-67
2023/04/13 07:12:02;;;;;;;;;8.00;4.75;;;;;8.87;55.08;100171.16;5041583;28;45346;-67
2023/04/13 07:14:32;;;;;;;;;5.00;4.00;;;;;8.88;55.39;100167.63;5043350;28;45228;-67
2023/04/13 07:16:58;;;;;;;;;9.00;3.00;;;;;8.91;55.16;100180.69;5058504;28;45537;-67
2023/04/13 07:19:24;;;;;;;;;4.75;2.00;;;;;8.94;55.24;100175.38;5042708;28;52209;-67
2023/04/13 07:21:50;;;;;;;;;8.50;3.00;;;;;8.98;54.99;100181.44;5042941;28;45298;-67
2023/04/13 07:24:15;;;;;;;;;5.00;3.00;;;;;8.98;55.39;100198.06;5041886;28;45332;-67
2023/04/13 07:26:41;;;;;;;;;4.00;3.00;;;;;9.02;55.28;100190.97;5042598;28;45339;-67
2023/04/13 07:29:12;;;;;;;;;6.25;3.25;;;;;9.04;55.12;100190.09;5042731;28;46911;-68
2023/04/13 07:31:37;;;;;;;;;6.00;4.00;;;;;9.08;55.36;100201.34;5023276;28;45270;-67
2023/04/13 07:34:02;;;;;;;;;4.50;3.25;;;;;9.11;55.31;100196.09;5040395;28;45503;-67
2023/04/13 07:36:27;;;;;;;;;7.50;3.00;;;;;9.15;55.19;100207.38;5042597;28;49989;-67
2023/04/13 07:38:53;;;;;;;;;9.25;4.50;;;;;9.18;55.23;100195.09;5042589;28;46172;-67
2023/04/13 07:41:21;;;;;;;;;2.75;2.75;;;;;9.22;55.21;100196.75;5042079;28;45740;-67
2023/04/13 07:43:46;;;;;;;;;5.50;4.00;;;;;9.26;55.23;100200.19;5043068;28;45239;-67
2023/04/13 07:46:12;;;;;;;;;7.25;3.50;;;;;9.29;55.06;100201.91;5042588;28;45567;-67
2023/04/13 07:48:38;;;;;;;;;4.25;3.25;;;;;9.30;55.06;100201.88;5057902;28;46561;-67
2023/04/13 07:51:03;;;;;;;;;6.00;2.75;;;;;9.33;54.88;100222.78;5042577;28;45236;-67
2023/04/13 07:53:29;;;;;;;;;5.50;4.00;;;;;9.34;55.27;100186.94;5042837;28;45337;-67
2023/04/13 07:55:54;;;;;;;;;7.00;3.75;;;;;9.40;55.20;100195.56;5042369;28;45351;-67
2023/04/13 07:58:19;;;;;;;;;7.00;4.00;;;;;9.41;55.09;100201.69;5042335;28;46073;-67
2023/04/13 08:00:45;;;;;;;;;2.00;0.75;;;;;9.50;54.77;100203.28;5042236;28;45841;-67
2023/04/13 08:03:11;;;;;;;;;5.25;2.00;;;;;9.52;55.03;100202.34;5042695;28;45696;-68
2023/04/13 08:05:36;;;;;;;;;8.25;6.00;;;;;9.55;54.87;100207.53;5057695;28;45584;-67
2023/04/13 08:08:01;;;;;;;;;8.75;4.00;;;;;9.61;55.01;100219.69;5041429;28;46583;-67
2023/04/13 08:10:27;;;;;;;;;4.25;2.50;;;;;9.66;54.72;100214.34;5041799;28;45426;-67
2023/04/13 08:12:52;;;;;;;;;7.00;4.00;;;;;9.69;54.94;100212.53;5042573;28;45315;-67
2023/04/13 08:15:18;;;;;;;;;4.00;4.00;;;;;9.72;54.65;100211.59;5042159;28;45339;-67
2023/04/13 08:17:43;;;;;;;;;7.50;2.00;;;;;9.78;54.80;100223.75;5042647;28;45387;-67
2023/04/13 08:20:09;;;;;;;;;4.00;4.00;;;;;9.82;54.73;100225.41;5041920;28;45331;-67
2023/04/13 08:22:35;;;;;;;;;6.25;3.00;;;;;9.86;54.69;100230.59;5042308;28;45406;-67
2023/04/13 08:25:01;;;;;;;;;5.50;3.75;;;;;9.90;54.52;100232.25;5042094;28;45234;-68
2023/04/13 08:27:26;;;;;;;;;6.75;3.00;;;;;9.92;54.66;100230.47;5041748;28;45391;-68
2023/04/13 08:29:55;;;;;;;;;3.25;2.25;;;;;9.97;54.52;100245.25;5036380;28;45409;-68
2023/04/13 08:32:21;;;;;;;;;4.75;2.00;;;;;10.02;54.62;100228.50;5026923;28;45460;-68
2023/04/13 08:34:46;;;;;;;;;6.00;3.75;;;;;10.05;54.28;100225.81;5041938;28;45688;-67
2023/04/13 08:37:14;;;;;;;;;7.00;5.25;;;;;10.10;54.25;100233.63;5041772;28;47335;-68
2023/04/13 08:39:39;;;;;;;;;8.50;3.25;;;;;10.11;54.36;100226.59;5040230;28;46075;-68
2023/04/13 08:42:05;;;;;;;;;3.25;2.25;;;;;10.15;54.52;100228.25;5041755;28;45369;-68
2023/04/13 08:44:32;;;;;;;;;9.50;3.75;;;;;10.23;54.15;100231.59;5041612;28;45288;-69
2023/04/13 08:46:58;;;;;;;;;7.75;4.25;;;;;10.25;54.12;100229.78;5041668;28;45174;-69
2023/04/13 08:49:25;;;;;;;;;3.50;3.00;;;;;10.32;54.27;100239.28;5041327;28;45280;-69
2023/04/13 08:51:52;;;;;;;;;6.50;4.00;;;;;10.37;54.14;100232.19;5040439;28;45400;-69
2023/04/13 08:54:17;;;;;;;;;7.00;3.75;;;;;10.45;53.93;100236.41;5041489;28;45527;-69
2023/04/13 08:56:45;;;;;;;;;7.00;3.25;;;;;10.53;54.02;100252.91;5056483;28;51534;-68
2023/04/13 08:59:11;;;;;;;;;7.25;4.00;;;;;10.57;54.19;100242.25;5041319;28;45309;-69
2023/04/13 09:01:38;;;;;;;;;11.50;5.75;;;;;10.66;54.18;100245.59;5041469;28;45276;-69
2023/04/13 09:04:09;;;;;;;;;10.00;4.50;;;;;10.72;54.05;100238.44;5041283;28;45505;-67
2023/04/13 09:06:38;;;;;;;;;6.75;5.00;;;;;10.79;53.88;100251.44;5041167;28;46511;-68
2023/04/13 09:09:09;;;;;;;;;6.00;3.75;;;;;10.86;53.41;100253.03;5041159;28;45430;-68
2023/04/13 09:11:35;;;;;;;;;2.25;2.25;;;;;10.89;53.64;100248.56;5042065;27;45322;-68
2023/04/13 09:14:01;;;;;;;;;4.50;3.50;;;;;10.93;53.95;100243.22;5041480;28;45332;-69
2023/04/13 09:16:27;;;;;;;;;5.50;3.00;;;;;10.99;53.56;100251.84;5041052;28;45390;-68
2023/04/13 09:18:54;;;;;;;;;4.00;3.00;;;;;11.04;53.02;100242.09;5041004;28;45308;-68
2023/04/13 09:21:21;;;;;;;;;3.00;1.00;;;;;11.04;53.02;100242.09;5039655;28;45271;-68
2023/04/13 09:23:57;;;;;;;;;6.00;2.00;;;;;11.10;52.95;100246.31;5041155;28;45764;-69
2023/04/13 09:26:23;;;;;;;;;5.00;5.00;;;;;11.11;52.98;100250.69;5040519;28;46374;-68
2023/04/13 09:28:51;;;;;;;;;5.75;3.50;;;;;11.17;52.70;100236.50;5040847;28;45379;-68
2023/04/13 09:31:18;;;;;;;;;8.50;2.50;;;;;11.21;52.38;100243.44;5023880;28;45245;-69
2023/04/13 09:33:45;;;;;;;;;4.75;3.00;;;;;11.29;52.35;100251.13;5037081;28;45160;-69
2023/04/13 09:36:16;;;;;;;;;8.00;3.25;;;;;11.35;52.19;100243.09;5040676;28;45219;-69
2023/04/13 09:38:52;;;;;;;;;5.00;1.00;;;;;11.40;52.34;100242.97;5040833;28;45236;-69
2023/04/13 09:41:33;;;;;;;;;10.25;5.00;;;;;11.48;52.14;100246.25;5038960;28;45307;-68
2023/04/13 09:44:00;;;;;;;;;7.25;5.50;;;;;11.53;51.99;100240.00;5040624;28;45525;-68
2023/04/13 09:46:25;;;;;;;;;7.50;3.50;;;;;11.65;52.05;100245.84;5040794;28;46236;-69
2023/04/13 09:49:02;;;;;;;;;6.25;3.00;;;;;11.77;52.17;100242.00;5040358;28;45174;-69
2023/04/13 09:51:45;;;;;;;;;3.00;1.50;;;;;11.87;52.07;100254.00;5040932;28;45399;-68
2023/04/13 09:54:10;;;;;;;;;3.75;3.75;;;;;11.95;52.20;100241.50;5040519;28;45376;-68
2023/04/13 09:56:47;;;;;;;;;2.50;1.00;;;;;12.05;51.98;100244.78;5040204;28;47030;-68
2023/04/13 09:59:13;;;;;;;;;2.25;2.25;;;;;12.16;51.89;100244.47;5040575;28;45331;-68
2023/04/13 10:01:42;;;;;;;;;4.50;3.50;;;;;12.22;51.78;100241.66;5040456;28;45257;-68
2023/04/13 10:04:07;;;;;;;;;4.00;1.50;;;;;12.28;51.62;100248.53;5040625;28;45360;-68
2023/04/13 10:06:41;;;;;;;;;2.00;2.00;;;;;12.29;51.30;100234.41;5040240;28;45487;-68
2023/04/13 10:09:07;;;;;;;;;3.25;3.25;;;;;12.37;51.71;100244.75;5040454;28;45419;-68
2023/04/13 10:11:38;;;;;;;;;2.00;2.00;;;;;12.41;51.47;100238.47;5040177;28;45500;-68
2023/04/13 10:14:10;;;;;;;;;2.00;1.50;;;;;12.45;51.45;100235.72;5040643;28;45231;-67
2023/04/13 10:16:39;;;;;;;;;7.25;1.75;;;;;12.50;51.06;100249.63;5040084;28;45348;-67
2023/04/13 10:19:29;;;;;;;;;2.00;2.00;;;;;12.55;50.78;100240.69;5040282;28;45438;-67
2023/04/13 10:21:55;;;;;;;;;3.75;3.00;;;;;12.58;50.57;100233.56;5041983;28;45399;-67
2023/04/13 10:24:22;;;;;;;;;4.50;3.00;;;;;12.65;50.77;100227.22;5040029;28;45442;-68
2023/04/13 10:26:59;;;;;;;;;2.75;2.25;;;;;12.72;50.83;100232.28;5039948;28;45201;-68
2023/04/13 10:29:31;;;;;;;;;2.25;1.00;;;;;12.83;50.20;100236.31;5037893;28;45252;-68
2023/04/13 10:32:01;;;;;;;;;2.50;1.00;;;;;12.93;50.15;100225.44;5020892;28;45319;-68
2023/04/13 10:34:29;;;;;;;;;5.50;2.50;;;;;13.08;50.13;100229.38;5039335;28;45391;-68
2023/04/13 10:36:57;;;;;;;;;2.00;1.00;;;;;13.28;50.01;100233.97;5055475;28;48533;-68
2023/04/13 10:39:28;;;;;;;;;2.25;2.00;;;;;13.46;49.97;100225.47;5039231;28;45244;-68
2023/04/13 10:42:00;;;;;;;;;2.00;1.00;;;;;13.65;49.69;100225.69;5039922;28;45351;-68
2023/04/13 10:44:25;;;;;;;;;2.25;2.25;;;;;13.91;49.14;100218.63;5039693;28;45455;-68
2023/04/13 10:46:51;;;;;;;;;0.75;0.25;;;;;14.10;49.25;100215.28;5039804;28;47297;-68
2023/04/13 10:49:16;;;;;;;;;1.50;1.50;;;;;14.24;48.70;100218.31;5039645;28;45451;-68
2023/04/13 10:51:43;;;;;;;;;4.50;2.00;;;;;14.38;48.95;100216.94;5040282;28;45318;-68
2023/04/13 10:54:10;;;;;;;;;2.50;2.50;;;;;14.51;48.19;100204.94;5039606;28;45312;-68
2023/04/13 10:56:35;;;;;;;;;3.25;3.00;;;;;14.62;48.23;100202.72;5039367;27;46532;-68
2023/04/13 10:59:01;;;;;;;;;2.00;1.00;;;;;14.79;47.25;100207.41;5039415;28;45282;-68
2023/04/13 11:01:29;;;;;;;;;2.00;1.75;;;;;14.91;47.23;100200.72;5038633;28;45277;-68
2023/04/13 11:03:56;;;;;;;;;2.50;1.25;;;;;15.07;46.51;100213.34;5039668;28;45308;-68
2023/04/13 11:06:22;;;;;;;;;3.00;2.00;;;;;15.23;47.49;100210.91;5039595;28;45486;-69
2023/04/13 11:08:48;;;;;;;;;2.25;1.50;;;;;15.43;47.78;100210.94;5039361;28;45260;-68
2023/04/13 11:11:23;;;;;;;;;1.00;1.00;;;;;15.72;47.03;100219.41;5039408;28;45359;-68
2023/04/13 11:13:48;;;;;;;;;4.75;2.75;;;;;15.96;47.29;100210.47;5039753;28;45301;-68
2023/04/13 11:16:14;;;;;;;;;2.00;2.00;;;;;16.16;46.90;100199.81;5039304;28;45378;-66
2023/04/13 11:18:40;;;;;;;;;1.50;1.50;;;;;16.35;46.95;100198.94;5039580;28;45427;-68
2023/04/13 11:21:14;;;;;;;;;2.50;1.25;;;;;16.52;46.48;100219.38;5039555;28;45297;-68
2023/04/13 11:23:39;;;;;;;;;2.00;2.00;;;;;16.64;46.55;100194.94;5039450;28;45372;-67
2023/04/13 11:26:05;;;;;;;;;3.25;1.00;;;;;16.73;46.59;100190.97;5038858;28;46594;-66
2023/04/13 11:28:42;;;;;;;;;5.00;1.25;;;;;16.81;46.07;100210.00;5039478;28;45451;-66
2023/04/13 11:31:08;;;;;;;;;2.00;2.00;;;;;16.90;45.52;100195.44;5023547;28;45414;-66
2023/04/13 11:33:34;;;;;;;;;4.50;2.50;;;;;16.96;44.89;100203.13;5032487;28;45780;-68